createdAt,value
2019-03-19T00:01:07.814Z,32.80
2019-03-19T00:03:41.868Z,33.50
2019-03-19T00:06:15.969Z,34.23
2019-03-19T00:08:52.646Z,35.58
2019-03-19T00:11:26.874Z,34.37
2019-03-19T00:14:00.561Z,34.77
2019-03-19T00:16:34.295Z,34.83
2019-03-19T00:19:09.823Z,34.05
2019-03-19T00:21:44.012Z,35.13
2019-03-19T00:24:17.899Z,34.27
2019-03-19T00:26:51.565Z,33.90
2019-03-19T00:29:25.253Z,35.33
2019-03-19T00:31:59.060Z,34.80
2019-03-19T00:34:32.516Z,35.30
2019-03-19T00:37:06.852Z,36.25
2019-03-19T00:39:40.770Z,36.17
2019-03-19T00:42:14.576Z,37.40
2019-03-19T00:44:48.835Z,38.23
2019-03-19T00:47:22.986Z,38.30
2019-03-19T00:49:56.890Z,39.57
2019-03-19T00:52:31.117Z,37.73
2019-03-19T00:55:05.461Z,41.03
2019-03-19T00:57:40.322Z,39.08
2019-03-19T01:00:21.242Z,41.20
2019-03-19T01:02:57.011Z,41.57
2019-03-19T01:05:30.869Z,40.73
2019-03-19T01:08:04.479Z,42.83
2019-03-19T01:10:38.303Z,43.20
2019-03-19T01:13:12.134Z,43.43
2019-03-19T01:15:46.002Z,45.65
2019-03-19T01:18:21.500Z,45.30
2019-03-19T01:20:55.200Z,46.77
2019-03-19T01:23:28.798Z,49.03
2019-03-19T01:26:03.101Z,52.20
2019-03-19T01:28:37.427Z,51.63
2019-03-19T01:31:11.471Z,54.23
2019-03-19T01:33:45.239Z,54.37
2019-03-19T01:36:19.425Z,57.17
2019-03-19T01:38:53.247Z,58.23
2019-03-19T01:41:27.316Z,60.07
2019-03-19T01:44:01.673Z,62.07
2019-03-19T01:46:35.602Z,65.17
2019-03-19T01:49:09.344Z,63.07
2019-03-19T01:51:43.678Z,64.03
2019-03-19T01:54:17.428Z,66.00
2019-03-19T01:56:51.431Z,67.03
2019-03-19T01:59:25.605Z,67.22
2019-03-19T02:01:59.913Z,69.87
2019-03-19T02:04:33.995Z,71.92
2019-03-19T02:07:08.115Z,70.57
2019-03-19T02:09:42.862Z,70.25
2019-03-19T02:12:16.726Z,74.47
2019-03-19T02:14:50.605Z,74.53
2019-03-19T02:17:24.335Z,74.47
2019-03-19T02:19:58.414Z,75.53
2019-03-19T02:22:32.106Z,75.83
2019-03-19T02:25:06.136Z,76.20
2019-03-19T02:27:40.298Z,76.27
2019-03-19T02:30:17.115Z,80.87
2019-03-19T02:32:50.971Z,82.47
2019-03-19T02:35:25.096Z,82.15
2019-03-19T02:37:58.912Z,84.90
2019-03-19T02:40:33.060Z,81.50
2019-03-19T02:43:06.994Z,83.13
2019-03-19T02:45:40.915Z,85.67
2019-03-19T02:48:14.882Z,83.60
2019-03-19T02:50:48.637Z,81.77
2019-03-19T02:53:22.410Z,86.20
2019-03-19T02:55:56.546Z,84.83
2019-03-19T02:58:30.633Z,84.87
2019-03-19T03:01:04.368Z,89.40
2019-03-19T03:03:38.195Z,84.77
2019-03-19T03:06:11.946Z,86.83
2019-03-19T03:08:45.992Z,86.30
2019-03-19T03:11:20.421Z,87.93
2019-03-19T03:13:54.626Z,83.80
2019-03-19T03:16:28.867Z,86.63
2019-03-19T03:19:02.821Z,85.87
2019-03-19T03:21:36.834Z,86.17
2019-03-19T03:24:13.484Z,84.35
2019-03-19T03:26:48.260Z,85.10
2019-03-19T03:29:23.495Z,83.20
2019-03-19T03:31:57.251Z,84.00
2019-03-19T03:34:31.328Z,85.07
2019-03-19T03:37:05.534Z,85.55
2019-03-19T03:39:42.524Z,82.53
2019-03-19T03:42:17.098Z,83.12
2019-03-19T03:44:51.508Z,81.37
2019-03-19T03:47:25.746Z,84.20
2019-03-19T03:49:59.702Z,82.77
2019-03-19T03:52:35.957Z,81.90
2019-03-19T03:55:14.676Z,81.95
2019-03-19T03:57:48.914Z,81.67
2019-03-19T04:00:26.171Z,81.27
2019-03-19T04:03:00.605Z,80.42
2019-03-19T04:05:34.825Z,79.83
2019-03-19T04:08:09.313Z,80.77
2019-03-19T04:10:43.584Z,81.02
2019-03-19T04:13:18.130Z,79.93
2019-03-19T04:15:54.641Z,81.03
2019-03-19T04:18:29.120Z,81.53
2019-03-19T04:21:03.203Z,82.43
2019-03-19T04:23:37.579Z,81.00
2019-03-19T04:26:11.829Z,81.23
2019-03-19T04:28:47.862Z,81.83
2019-03-19T04:31:24.151Z,78.97
2019-03-19T04:33:59.002Z,80.53
2019-03-19T04:36:32.966Z,78.40
2019-03-19T04:39:08.130Z,76.53
2019-03-19T04:41:42.591Z,76.07
2019-03-19T04:44:18.896Z,76.65
2019-03-19T04:46:53.271Z,78.67
2019-03-19T04:49:28.239Z,77.83
2019-03-19T04:52:02.248Z,75.53
2019-03-19T04:54:36.784Z,78.17
2019-03-19T04:57:10.981Z,74.15
2019-03-19T04:59:45.055Z,76.47
2019-03-19T05:02:21.670Z,76.57
2019-03-19T05:04:56.990Z,77.00
2019-03-19T05:07:31.821Z,75.87
2019-03-19T05:10:07.281Z,76.53
2019-03-19T05:12:43.108Z,76.07
2019-03-19T05:15:18.109Z,78.27
2019-03-19T05:17:52.277Z,75.03
2019-03-19T05:20:26.680Z,75.47
2019-03-19T05:23:03.034Z,76.23
2019-03-19T05:25:38.717Z,74.00
2019-03-19T05:28:13.337Z,74.37
2019-03-19T05:30:47.566Z,72.80
2019-03-19T05:33:21.485Z,73.07
2019-03-19T05:35:55.639Z,72.30
2019-03-19T05:38:29.697Z,73.00
2019-03-19T05:41:03.700Z,70.80
2019-03-19T05:43:37.691Z,72.30
2019-03-19T05:46:11.570Z,71.17
2019-03-19T05:48:45.845Z,70.77
2019-03-19T05:51:20.007Z,69.47
2019-03-19T05:53:54.130Z,69.17
2019-03-19T05:56:28.650Z,67.90
2019-03-19T05:59:04.025Z,64.97
2019-03-19T06:01:38.123Z,65.63
2019-03-19T06:04:12.106Z,64.33
2019-03-19T06:06:49.594Z,62.53
2019-03-19T06:09:25.295Z,60.93
2019-03-19T06:11:59.682Z,61.40
2019-03-19T06:14:33.650Z,59.47
2019-03-19T06:17:07.556Z,61.60
2019-03-19T06:19:41.364Z,59.33
2019-03-19T06:22:15.666Z,58.37
2019-03-19T06:24:50.402Z,61.57
2019-03-19T06:27:24.374Z,60.60
2019-03-19T06:29:58.262Z,60.30
2019-03-19T06:32:43.492Z,59.77
2019-03-19T06:35:18.426Z,60.87
2019-03-19T06:37:52.268Z,59.03
2019-03-19T06:40:26.233Z,61.87
2019-03-19T06:43:00.356Z,57.43
2019-03-19T06:45:34.205Z,56.60
2019-03-19T06:48:08.216Z,57.98
2019-03-19T06:50:45.469Z,57.10
2019-03-19T06:53:18.371Z,56.85
2019-03-19T06:55:52.227Z,55.60
2019-03-19T06:58:26.154Z,56.53
2019-03-19T07:01:00.025Z,56.00
2019-03-19T07:03:34.001Z,54.80
2019-03-19T07:06:08.296Z,55.43
2019-03-19T07:08:41.899Z,54.90
2019-03-19T07:11:15.865Z,55.80
2019-03-19T07:13:49.877Z,54.13
2019-03-19T07:16:26.252Z,55.90
2019-03-19T07:19:02.094Z,56.00
2019-03-19T07:21:36.158Z,55.03
2019-03-19T07:24:10.113Z,55.23
2019-03-19T07:26:44.039Z,55.77
2019-03-19T07:29:19.359Z,55.43
2019-03-19T07:31:52.952Z,54.63
2019-03-19T07:34:27.050Z,54.37
2019-03-19T07:37:01.466Z,54.07
2019-03-19T07:39:35.711Z,52.83
2019-03-19T07:42:09.441Z,53.60
2019-03-19T07:44:43.142Z,53.63
2019-03-19T07:47:17.453Z,53.35
2019-03-19T07:49:51.599Z,52.50
2019-03-19T07:52:27.520Z,55.60
2019-03-19T07:55:01.858Z,54.47
2019-03-19T07:57:35.847Z,53.87
2019-03-19T08:00:14.960Z,54.90
2019-03-19T08:02:49.689Z,53.58
2019-03-19T08:05:32.905Z,56.40
2019-03-19T08:08:04.736Z,54.80
2019-03-19T08:10:40.206Z,53.85
2019-03-19T08:13:15.037Z,54.63
2019-03-19T08:15:48.918Z,53.70
2019-03-19T08:18:22.960Z,54.67
2019-03-19T08:20:56.728Z,52.60
2019-03-19T08:23:30.893Z,52.50
2019-03-19T08:26:04.796Z,52.83
2019-03-19T08:28:39.468Z,52.20
2019-03-19T08:31:13.516Z,52.90
2019-03-19T08:33:49.257Z,53.03
2019-03-19T08:36:23.247Z,53.50
2019-03-19T08:38:57.268Z,52.50
2019-03-19T08:41:30.899Z,52.80
2019-03-19T08:44:06.127Z,52.10
2019-03-19T08:46:40.526Z,49.60
2019-03-19T08:49:16.456Z,49.47
2019-03-19T08:51:51.279Z,49.93
2019-03-19T08:54:32.463Z,49.80
2019-03-19T08:57:06.532Z,49.83
2019-03-19T08:59:40.747Z,50.37
2019-03-19T09:02:18.041Z,51.27
2019-03-19T09:04:51.923Z,49.23
2019-03-19T09:07:44.921Z,48.87
2019-03-19T09:10:20.327Z,47.40
2019-03-19T09:12:54.020Z,46.53
2019-03-19T09:15:31.474Z,46.90
2019-03-19T09:18:05.639Z,47.53
2019-03-19T09:20:39.446Z,45.58
2019-03-19T09:23:18.883Z,45.70
2019-03-19T09:25:52.798Z,45.30
2019-03-19T09:28:28.546Z,42.33
2019-03-19T09:31:03.945Z,42.77
2019-03-19T09:33:46.502Z,41.90
2019-03-19T09:36:22.258Z,40.05
2019-03-19T09:38:56.479Z,37.27
2019-03-19T09:41:30.988Z,39.37
2019-03-19T09:44:04.568Z,37.13
2019-03-19T09:46:38.757Z,36.23
2019-03-19T09:49:13.626Z,35.77
2019-03-19T09:51:47.298Z,37.70
2019-03-19T09:54:21.617Z,35.60
2019-03-19T09:56:55.667Z,36.37
2019-03-19T09:59:29.950Z,36.03
2019-03-19T10:02:05.654Z,35.17
2019-03-19T10:04:39.282Z,35.52
2019-03-19T10:07:16.299Z,34.83
2019-03-19T10:09:50.057Z,36.53
2019-03-19T10:12:24.007Z,37.77
2019-03-19T10:15:00.424Z,38.13
2019-03-19T10:17:34.135Z,38.53
2019-03-19T10:20:10.361Z,37.75
2019-03-19T10:22:44.445Z,39.08
2019-03-19T10:25:18.909Z,38.03
2019-03-19T10:27:54.905Z,38.00
2019-03-19T10:30:30.813Z,41.50
2019-03-19T10:33:05.562Z,39.10
2019-03-19T10:35:39.605Z,41.03
2019-03-19T10:38:13.954Z,41.10
2019-03-19T10:40:49.268Z,41.53
2019-03-19T10:43:23.896Z,40.27
2019-03-19T10:45:58.986Z,41.08
2019-03-19T10:48:33.356Z,39.77
2019-03-19T10:51:08.024Z,40.23
2019-03-19T10:53:42.462Z,38.77
2019-03-19T10:56:16.928Z,38.43
2019-03-19T10:58:53.325Z,37.58
2019-03-19T11:01:27.354Z,37.20
2019-03-19T11:04:02.710Z,37.87
2019-03-19T11:06:37.498Z,38.70
2019-03-19T11:09:12.231Z,40.37
2019-03-19T11:11:47.008Z,40.23
2019-03-19T11:14:21.198Z,41.53
2019-03-19T11:16:56.242Z,40.65
2019-03-19T11:19:30.621Z,43.70
2019-03-19T11:22:06.398Z,44.17
2019-03-19T11:24:40.722Z,45.07
2019-03-19T11:27:15.912Z,46.27
2019-03-19T11:29:59.522Z,46.67
2019-03-19T11:32:26.472Z,45.73
2019-03-19T11:35:01.634Z,46.67
2019-03-19T11:37:36.620Z,46.37
2019-03-19T11:40:27.621Z,48.57
2019-03-19T11:43:04.450Z,46.00
2019-03-19T11:45:45.948Z,46.67
2019-03-19T11:48:23.044Z,48.52
2019-03-19T11:51:00.744Z,46.43
2019-03-19T11:53:37.601Z,45.65
2019-03-19T11:56:12.661Z,45.17
2019-03-19T11:58:48.000Z,44.70
2019-03-19T12:01:32.978Z,45.10
2019-03-19T12:04:09.214Z,45.83
2019-03-19T12:06:47.108Z,45.77
2019-03-19T12:09:22.650Z,45.90
2019-03-19T12:11:57.019Z,46.30
2019-03-19T12:14:31.433Z,44.90
2019-03-19T12:17:07.516Z,45.10
2019-03-19T12:19:46.497Z,45.27
2019-03-19T12:22:23.346Z,44.60
2019-03-19T12:25:00.109Z,46.33
2019-03-19T12:27:35.085Z,47.40
2019-03-19T12:30:22.138Z,45.83
2019-03-19T12:32:50.096Z,47.17
2019-03-19T12:35:24.304Z,45.10
2019-03-19T12:37:58.719Z,45.97
2019-03-19T12:40:37.213Z,46.60
2019-03-19T12:43:10.386Z,46.47
2019-03-19T12:45:46.938Z,47.13
2019-03-19T12:48:21.935Z,48.57
2019-03-19T12:50:59.355Z,47.13
2019-03-19T12:53:36.459Z,47.30
2019-03-19T12:56:13.319Z,47.07
2019-03-19T12:58:48.467Z,47.07
2019-03-19T13:01:23.530Z,46.92
2019-03-19T13:03:59.689Z,47.93
2019-03-19T13:06:35.541Z,46.90
2019-03-19T13:09:10.695Z,47.33
2019-03-19T13:11:45.419Z,47.73
2019-03-19T13:14:22.616Z,46.00
2019-03-19T13:16:59.207Z,47.23
2019-03-19T13:19:34.314Z,46.00
2019-03-19T13:22:09.351Z,47.10
2019-03-19T13:24:44.544Z,47.17
2019-03-19T13:27:19.649Z,45.45
2019-03-19T13:29:55.061Z,46.40
2019-03-19T13:32:30.138Z,47.27
2019-03-19T13:35:08.256Z,45.20
2019-03-19T13:37:43.261Z,44.75
2019-03-19T13:40:21.277Z,45.83
2019-03-19T13:42:55.922Z,45.45
2019-03-19T13:45:33.076Z,43.73
2019-03-19T13:48:12.858Z,44.00
2019-03-19T13:50:53.219Z,43.93
2019-03-19T13:53:27.753Z,46.43
2019-03-19T13:56:02.345Z,43.73
2019-03-19T13:58:40.341Z,45.73
2019-03-19T14:01:17.139Z,48.78
2019-03-19T14:03:55.418Z,47.00
2019-03-19T14:06:31.927Z,45.33
2019-03-19T14:09:08.056Z,46.07
2019-03-19T14:11:57.310Z,50.05
2019-03-19T14:14:47.374Z,47.07
2019-03-19T14:17:42.961Z,45.92
2019-03-19T14:20:20.872Z,47.23
2019-03-19T14:22:55.606Z,47.63
2019-03-19T14:25:31.824Z,47.57
2019-03-19T14:28:06.465Z,46.27
2019-03-19T14:30:41.205Z,48.73
2019-03-19T14:33:16.128Z,45.70
2019-03-19T14:35:49.933Z,45.77
2019-03-19T14:38:24.441Z,46.33
2019-03-19T14:41:00.651Z,46.20
2019-03-19T14:43:34.806Z,45.60
2019-03-19T14:46:08.983Z,45.70
2019-03-19T14:48:46.618Z,46.13
2019-03-19T14:51:20.362Z,44.30
2019-03-19T14:53:54.708Z,44.33
2019-03-19T14:56:28.628Z,45.87
2019-03-19T14:59:02.577Z,44.70
2019-03-19T15:01:36.142Z,46.30
2019-03-19T15:04:10.224Z,45.70
2019-03-19T15:06:44.509Z,46.35
2019-03-19T15:09:18.626Z,46.05
2019-03-19T15:11:52.661Z,48.07
2019-03-19T15:14:26.376Z,46.07
2019-03-19T15:17:04.829Z,47.87
2019-03-19T15:19:35.685Z,48.40
2019-03-19T15:22:10.571Z,48.73
2019-03-19T15:24:46.524Z,48.03
2019-03-19T15:27:22.223Z,48.05
2019-03-19T15:29:56.168Z,48.93
2019-03-19T15:32:32.861Z,46.90
2019-03-19T15:35:07.791Z,47.47
2019-03-19T15:37:41.592Z,47.87
2019-03-19T15:40:23.328Z,48.58
2019-03-19T15:42:57.866Z,48.47
2019-03-19T15:45:34.426Z,48.63
2019-03-19T15:48:07.953Z,49.63
2019-03-19T15:50:42.245Z,50.20
2019-03-19T15:53:17.408Z,49.17
2019-03-19T15:55:53.113Z,48.30
2019-03-19T15:58:29.039Z,50.17
2019-03-19T16:01:02.598Z,49.73
2019-03-19T16:03:36.610Z,49.50
2019-03-19T16:06:11.294Z,51.63
2019-03-19T16:08:45.132Z,50.17
2019-03-19T16:11:20.414Z,50.50
2019-03-19T16:13:55.485Z,49.70
2019-03-19T16:16:30.585Z,50.33
2019-03-19T16:19:04.754Z,50.63
2019-03-19T16:21:38.721Z,49.47
2019-03-19T16:24:12.541Z,50.00
2019-03-19T16:26:46.603Z,49.00
2019-03-19T16:29:39.649Z,50.77
2019-03-19T16:32:13.563Z,50.33
2019-03-19T16:34:47.401Z,50.93
2019-03-19T16:37:26.103Z,51.23
2019-03-19T16:40:00.023Z,48.77
2019-03-19T16:42:33.844Z,50.43
2019-03-19T16:45:09.621Z,50.75
2019-03-19T16:47:43.679Z,50.20
2019-03-19T16:50:21.109Z,50.43
2019-03-19T16:52:54.947Z,51.68
2019-03-19T16:55:30.104Z,51.17
2019-03-19T16:58:04.041Z,51.47
2019-03-19T17:00:38.467Z,50.98
2019-03-19T17:03:12.282Z,51.90
2019-03-19T17:05:47.114Z,51.60
2019-03-19T17:08:20.758Z,50.65
2019-03-19T17:10:55.012Z,51.90
2019-03-19T17:13:28.781Z,51.07
2019-03-19T17:16:02.777Z,52.83
2019-03-19T17:18:37.901Z,53.20
2019-03-19T17:21:12.967Z,52.23
2019-03-19T17:23:47.053Z,52.00
2019-03-19T17:26:21.114Z,52.48
2019-03-19T17:28:55.047Z,51.23
2019-03-19T17:31:28.925Z,53.67
2019-03-19T17:34:02.590Z,53.20
2019-03-19T17:36:36.222Z,53.70
2019-03-19T17:39:10.993Z,53.83
2019-03-19T17:41:44.714Z,51.93
2019-03-19T17:44:18.611Z,55.03
2019-03-19T17:46:53.899Z,49.48
2019-03-19T17:49:27.835Z,53.90
2019-03-19T17:52:02.178Z,55.77
2019-03-19T17:54:36.038Z,53.37
2019-03-19T17:57:09.893Z,55.27
2019-03-19T17:59:43.616Z,58.05
2019-03-19T18:02:23.900Z,54.50
2019-03-19T18:04:54.162Z,55.90
2019-03-19T18:07:28.191Z,55.77
2019-03-19T18:10:03.107Z,55.87
2019-03-19T18:12:39.021Z,55.00
2019-03-19T18:15:22.829Z,55.10
2019-03-19T18:17:56.758Z,55.50
2019-03-19T18:20:30.963Z,56.23
2019-03-19T18:23:04.754Z,57.80
2019-03-19T18:25:39.790Z,59.10
2019-03-19T18:28:15.133Z,60.27
2019-03-19T18:30:48.635Z,63.33
2019-03-19T18:33:22.384Z,62.10
2019-03-19T18:35:56.574Z,61.80
2019-03-19T18:38:30.538Z,63.33
2019-03-19T18:41:04.430Z,63.33
2019-03-19T18:43:38.051Z,59.83
2019-03-19T18:46:12.396Z,61.80
2019-03-19T18:48:46.253Z,65.03
2019-03-19T18:51:21.404Z,61.17
2019-03-19T18:53:55.357Z,62.87
2019-03-19T18:56:29.994Z,63.28
2019-03-19T18:59:05.277Z,65.00
2019-03-19T19:01:39.040Z,63.87
2019-03-19T19:04:13.632Z,61.60
2019-03-19T19:06:47.511Z,61.47
2019-03-19T19:09:21.509Z,73.52
2019-03-19T19:11:55.240Z,79.00
2019-03-19T19:14:35.980Z,66.97
2019-03-19T19:17:13.155Z,68.47
2019-03-19T19:19:47.050Z,68.42
2019-03-19T19:22:30.164Z,81.13
2019-03-19T19:25:04.362Z,79.83
2019-03-19T19:27:38.097Z,74.23
2019-03-19T19:30:14.657Z,73.10
2019-03-19T19:32:48.773Z,70.60
2019-03-19T19:35:22.763Z,71.73
2019-03-19T19:37:56.680Z,70.23
2019-03-19T19:40:30.441Z,70.93
2019-03-19T19:43:05.392Z,71.63
2019-03-19T19:45:42.532Z,72.17
2019-03-19T19:48:14.680Z,71.53
2019-03-19T19:50:52.068Z,74.80
2019-03-19T19:53:25.805Z,76.97
2019-03-19T19:56:00.007Z,77.93
2019-03-19T19:58:35.203Z,76.20
2019-03-19T20:01:09.036Z,76.90
2019-03-19T20:03:42.937Z,75.50
2019-03-19T20:06:16.323Z,79.53
2019-03-19T20:08:50.481Z,79.43
2019-03-19T20:11:24.453Z,77.30
2019-03-19T20:13:58.052Z,78.57
2019-03-19T20:16:32.483Z,78.20
2019-03-19T20:19:06.147Z,79.47
2019-03-19T20:21:43.386Z,83.65
2019-03-19T20:24:17.070Z,82.33
2019-03-19T20:26:51.397Z,79.67
2019-03-19T20:29:25.738Z,77.37
2019-03-19T20:31:59.534Z,75.78
2019-03-19T20:34:33.423Z,76.90
2019-03-19T20:37:07.115Z,73.80
2019-03-19T20:39:41.266Z,75.27
2019-03-19T20:42:14.889Z,74.55
2019-03-19T20:44:48.632Z,76.72
2019-03-19T20:47:22.378Z,78.03
2019-03-19T20:49:56.476Z,77.90
2019-03-19T20:52:32.704Z,81.10
2019-03-19T20:55:06.375Z,81.00
2019-03-19T20:57:40.178Z,79.17
2019-03-19T21:00:16.935Z,81.13
2019-03-19T21:02:50.501Z,82.32
2019-03-19T21:05:24.947Z,82.40
2019-03-19T21:07:58.710Z,85.32
2019-03-19T21:10:32.592Z,83.50
2019-03-19T21:13:06.184Z,81.30
2019-03-19T21:15:41.203Z,84.57
2019-03-19T21:18:15.039Z,83.55
2019-03-19T21:20:50.060Z,83.72
2019-03-19T21:23:24.267Z,83.67
2019-03-19T21:25:58.188Z,84.55
2019-03-19T21:28:32.396Z,82.73
2019-03-19T21:31:06.051Z,81.70
2019-03-19T21:33:50.520Z,81.23
2019-03-19T21:36:17.405Z,83.67
2019-03-19T21:38:51.194Z,82.13
2019-03-19T21:41:26.780Z,81.20
2019-03-19T21:44:00.378Z,81.33
2019-03-19T21:46:34.028Z,78.80
2019-03-19T21:49:07.787Z,79.27
2019-03-19T21:51:41.436Z,79.37
2019-03-19T21:54:15.279Z,76.50
2019-03-19T21:56:49.001Z,76.27
2019-03-19T21:59:22.958Z,77.53
2019-03-19T22:01:56.796Z,77.40
2019-03-19T22:04:30.662Z,73.80
2019-03-19T22:07:04.451Z,70.57
2019-03-19T22:09:38.525Z,69.57
2019-03-19T22:18:50.618Z,60.58
2019-03-19T22:21:24.276Z,59.50
2019-03-19T22:23:59.524Z,56.03
2019-03-19T22:26:33.009Z,54.33
2019-03-19T22:29:06.270Z,46.57
2019-03-19T22:31:40.079Z,43.23
2019-03-19T22:34:14.418Z,44.23
2019-03-19T22:36:48.121Z,41.80
2019-03-19T22:42:27.507Z,41.00
2019-03-19T22:45:01.395Z,39.30
2019-03-19T22:47:36.386Z,38.47
2019-03-19T22:50:12.907Z,39.20
2019-03-19T22:52:47.225Z,39.73
2019-03-19T22:55:28.629Z,37.70
2019-03-19T22:57:55.084Z,33.63
2019-03-19T23:00:32.365Z,33.50
2019-03-19T23:03:07.292Z,31.30
2019-03-19T23:05:45.496Z,29.67
2019-03-19T23:08:17.862Z,29.42
2019-03-19T23:10:51.153Z,29.20
2019-03-19T23:14:06.073Z,29.93
2019-03-19T23:19:39.683Z,27.57
2019-03-19T23:22:14.965Z,27.87
2019-03-19T23:24:49.231Z,27.07
2019-03-19T23:27:24.195Z,27.50
2019-03-19T23:29:57.841Z,26.25
2019-03-19T23:32:31.978Z,26.50
2019-03-19T23:35:06.606Z,25.93
2019-03-19T23:38:07.674Z,26.27
2019-03-19T23:43:44.630Z,26.50
2019-03-19T23:46:18.914Z,28.63
2019-03-19T23:48:53.181Z,27.17
2019-03-19T23:51:26.927Z,32.45
2019-03-19T23:54:02.069Z,34.73
2019-03-19T23:56:37.184Z,36.53
2019-03-19T23:59:11.237Z,40.23
